Time;durP1;ratioP1;P1;durP2;ratioP2;P2;SDS_P1;SDS_P2;PMS_P1;PMS_P2;Temp;Humidity;BMP_temperature;BMP_pressure;BME280_temperature;BME280_humidity;BME280_pressure;Samples;Min_cycle;Max_cycle;Signal;HPM_P1;HPM_P2
2022/05/09 00:01:17;;;;;;;2.70;2.50;;;;;;;10.12;52.68;101968.41;5079637;28;20027;-31
2022/05/09 00:03:44;;;;;;;2.92;2.60;;;;;;;10.07;52.92;101965.69;5079956;28;20032;-29
2022/05/09 00:06:10;;;;;;;4.10;2.65;;;;;;;10.03;53.16;101963.88;5078919;28;20452;-30
2022/05/09 00:08:35;;;;;;;5.60;3.58;;;;;;;9.99;52.62;101952.44;5077654;28;20115;-30
2022/05/09 00:11:00;;;;;;;4.07;2.72;;;;;;;9.95;52.90;101960.25;5077191;28;20476;-29
2022/05/09 00:13:26;;;;;;;3.65;2.78;;;;;;;9.92;52.71;101962.84;5081920;28;20020;-30
2022/05/09 00:15:51;;;;;;;3.17;2.70;;;;;;;9.85;53.15;101965.41;5075571;28;20403;-29
2022/05/09 00:18:19;;;;;;;2.30;2.10;;;;;;;9.81;52.63;101963.59;5084061;28;20039;-30
2022/05/09 00:20:45;;;;;;;4.55;2.55;;;;;;;9.77;52.72;101974.94;5079745;28;20069;-29
2022/05/09 00:23:10;;;;;;;3.05;2.75;;;;;;;9.74;52.69;101978.41;5081080;28;20019;-30
2022/05/09 00:25:35;;;;;;;4.50;2.55;;;;;;;9.68;52.84;101978.34;5081361;28;20077;-30
2022/05/09 00:28:01;;;;;;;5.30;3.30;;;;;;;9.65;52.92;101972.13;5076406;28;20120;-30
2022/05/09 00:30:26;;;;;;;5.05;2.63;;;;;;;9.61;53.10;101976.47;5084671;28;20513;-30
2022/05/09 00:32:51;;;;;;;2.50;2.20;;;;;;;9.57;53.03;101978.13;5086101;28;20163;-30
2022/05/09 00:35:17;;;;;;;4.40;2.50;;;;;;;9.54;53.40;101974.59;5087989;28;20071;-30
2022/05/09 00:37:43;;;;;;;2.92;2.33;;;;;;;9.50;53.16;101973.63;5082189;28;20495;-30
2022/05/09 00:40:10;;;;;;;2.50;1.85;;;;;;;9.45;53.29;101975.31;5101934;28;20024;-30
2022/05/09 00:42:36;;;;;;;3.80;2.97;;;;;;;9.41;53.98;101984.03;5080129;28;20051;-29
2022/05/09 00:45:03;;;;;;;3.00;2.47;;;;;;;9.37;53.79;101983.97;5082885;28;20354;-31
2022/05/09 00:47:28;;;;;;;4.28;2.70;;;;;;;9.32;53.42;101977.75;5078880;28;20066;-30
2022/05/09 00:49:57;;;;;;;3.25;2.78;;;;;;;9.28;53.39;101978.56;5083089;28;20115;-31
2022/05/09 00:52:31;;;;;;;3.75;3.08;;;;;;;9.26;53.69;101982.00;5080492;28;20036;-29
2022/05/09 00:55:18;;;;;;;3.08;2.78;;;;;;;9.21;53.48;101984.56;5085113;28;20039;-30
2022/05/09 00:58:04;;;;;;;2.50;2.20;;;;;;;9.17;53.60;101991.50;5083430;28;20035;-30
2022/05/09 01:00:29;;;;;;;3.30;2.83;;;;;;;9.12;53.81;101993.19;5083249;28;20026;-30
2022/05/09 01:03:23;;;;;;;5.82;2.70;;;;;;;9.09;53.85;101994.03;5081366;28;20032;-30
2022/05/09 01:05:50;;;;;;;3.70;2.78;;;;;;;9.05;54.18;101992.19;5064688;28;20169;-30
2022/05/09 01:08:17;;;;;;;5.03;2.72;;;;;;;9.03;54.01;101987.78;5083766;28;20034;-30
2022/05/09 01:10:42;;;;;;;4.93;2.92;;;;;;;9.00;53.98;101993.84;5077222;28;20387;-30
2022/05/09 01:13:10;;;;;;;3.97;2.70;;;;;;;8.96;54.36;101992.00;5081483;28;20024;-30
2022/05/09 01:15:36;;;;;;;3.72;2.85;;;;;;;8.92;53.89;101990.19;5081261;28;20027;-30
2022/05/09 01:18:04;;;;;;;3.17;2.60;;;;;;;8.88;54.05;101984.00;5079123;28;20023;-29
2022/05/09 01:20:29;;;;;;;3.85;2.33;;;;;;;8.85;53.83;101986.56;5085185;28;20211;-30
2022/05/09 01:22:59;;;;;;;4.70;2.78;;;;;;;8.81;54.42;101980.31;5080652;28;20146;-31
2022/05/09 01:25:24;;;;;;;4.57;3.00;;;;;;;8.78;54.03;101982.94;5097380;28;20024;-29
2022/05/09 01:27:50;;;;;;;2.65;2.28;;;;;;;8.75;54.14;101981.97;5081433;28;20055;-29
2022/05/09 01:30:24;;;;;;;3.83;2.42;;;;;;;8.69;54.33;101982.72;5075876;28;20102;-30
2022/05/09 01:32:53;;;;;;;5.07;2.80;;;;;;;8.65;53.89;101973.91;5078449;28;20032;-31
2022/05/09 01:35:34;;;;;;;4.43;3.08;;;;;;;8.62;54.20;101976.47;5076345;28;20107;-31
2022/05/09 01:38:18;;;;;;;2.75;2.33;;;;;;;8.57;54.47;101976.38;5077681;28;20031;-29
2022/05/09 01:40:43;;;;;;;3.13;2.83;;;;;;;8.54;54.53;101973.66;5077874;28;20460;-30
2022/05/09 01:43:09;;;;;;;3.75;2.60;;;;;;;8.51;54.40;101984.13;5079894;28;20538;-30
2022/05/09 01:45:34;;;;;;;3.63;2.83;;;;;;;8.48;54.26;101976.16;5078481;28;20455;-30
2022/05/09 01:50:44;;;;;;;3.50;2.97;;;;;;;8.40;54.50;101983.88;5075270;28;20112;-30
2022/05/09 01:53:10;;;;;;;5.28;3.30;;;;;;;8.37;54.52;101980.31;5082836;28;20020;-30
2022/05/09 01:55:35;;;;;;;3.97;2.67;;;;;;;8.33;54.38;101987.22;5078840;28;20020;-31
2022/05/09 01:58:01;;;;;;;4.50;2.63;;;;;;;8.31;54.85;101984.56;5072401;28;20503;-30
2022/05/09 02:00:26;;;;;;;5.20;3.30;;;;;;;8.29;54.88;101988.91;5080122;28;20028;-30
2022/05/09 02:02:52;;;;;;;4.18;2.70;;;;;;;8.25;55.00;101981.81;5081304;28;20600;-30
2022/05/09 02:05:17;;;;;;;3.65;2.80;;;;;;;8.23;55.11;101982.63;5074574;28;20070;-31
2022/05/09 02:07:43;;;;;;;2.92;2.70;;;;;;;8.20;54.82;101983.44;5079595;28;20032;-30
2022/05/09 02:10:09;;;;;;;5.07;3.10;;;;;;;8.16;54.75;101976.34;5081448;28;20053;-29
2022/05/09 02:12:34;;;;;;;5.15;3.25;;;;;;;8.13;54.71;101984.19;5077404;28;20024;-31
2022/05/09 02:14:59;;;;;;;3.58;2.95;;;;;;;8.08;54.82;101990.19;5078036;28;20111;-29
2022/05/09 02:17:25;;;;;;;4.95;3.50;;;;;;;8.06;54.96;101986.66;5080055;28;20416;-30
2022/05/09 02:19:50;;;;;;;5.10;3.10;;;;;;;8.01;55.06;101990.94;5077488;28;20020;-30
2022/05/09 02:22:16;;;;;;;4.10;2.90;;;;;;;7.99;54.98;101992.63;5079996;28;20016;-29
2022/05/09 02:24:41;;;;;;;4.32;2.97;;;;;;;7.96;55.10;101988.19;5082005;28;20113;-32
2022/05/09 02:27:09;;;;;;;2.92;2.63;;;;;;;7.94;54.88;101986.38;5085867;28;20036;-30
2022/05/09 02:29:35;;;;;;;4.50;3.25;;;;;;;7.91;55.25;101994.19;5084124;28;20020;-30
2022/05/09 02:32:02;;;;;;;4.28;3.35;;;;;;;7.87;55.40;101985.34;5079241;28;20031;-29
2022/05/09 02:34:28;;;;;;;2.60;2.40;;;;;;;7.84;54.98;101990.53;5081173;28;20282;-29
2022/05/09 02:36:53;;;;;;;4.65;3.10;;;;;;;7.80;55.02;101994.81;5081533;28;20024;-30
2022/05/09 02:39:19;;;;;;;3.80;3.15;;;;;;;7.77;55.13;101983.38;5084263;28;20099;-29
2022/05/09 02:41:44;;;;;;;4.88;3.05;;;;;;;7.75;54.94;101985.06;5080696;28;20157;-30
2022/05/09 02:44:10;;;;;;;4.72;3.83;;;;;;;7.72;54.93;101990.22;5085447;28;20099;-29
2022/05/09 02:46:36;;;;;;;6.65;3.92;;;;;;;7.69;55.28;101991.06;5080386;28;20104;-31
2022/05/09 02:49:02;;;;;;;6.43;2.92;;;;;;;7.65;55.13;101989.19;5078871;28;20021;-30
2022/05/09 02:51:28;;;;;;;5.55;3.60;;;;;;;7.63;55.43;101988.25;5077316;28;20031;-30
2022/05/09 02:53:57;;;;;;;7.40;4.38;;;;;;;7.58;55.35;101985.56;5077390;28;20028;-29
2022/05/09 02:56:22;;;;;;;4.40;3.42;;;;;;;7.55;55.72;101989.00;5083932;28;20500;-29
2022/05/09 02:58:48;;;;;;;5.40;3.38;;;;;;;7.54;55.71;101988.94;5077855;28;20035;-31
2022/05/09 03:01:13;;;;;;;5.53;3.90;;;;;;;7.50;55.33;101981.84;5080444;28;20027;-29
2022/05/09 03:06:22;;;;;;;5.50;3.20;;;;;;;7.45;55.65;101986.97;5078192;28;20513;-30
2022/05/09 03:08:47;;;;;;;6.38;4.18;;;;;;;7.39;55.72;101992.97;5083024;28;20028;-30
2022/05/09 03:11:13;;;;;;;4.22;3.20;;;;;;;7.37;55.72;101993.78;5079381;28;20499;-31
2022/05/09 03:13:39;;;;;;;8.95;3.85;;;;;;;7.36;55.80;101986.72;5095370;28;20024;-30
2022/05/09 03:16:04;;;;;;;6.72;3.30;;;;;;;7.32;56.06;101986.69;5079546;28;20387;-30
2022/05/09 03:18:30;;;;;;;5.82;3.80;;;;;;;7.29;56.03;101991.84;5078578;28;20476;-29
2022/05/09 03:20:55;;;;;;;4.68;3.65;;;;;;;7.29;55.88;101997.09;5082669;28;20024;-31
2022/05/09 03:23:21;;;;;;;4.20;3.40;;;;;;;7.26;55.89;101991.75;5086032;28;20112;-30
2022/05/09 03:25:46;;;;;;;4.55;3.38;;;;;;;7.24;56.33;101998.69;5086673;28;20024;-30
2022/05/09 03:28:14;;;;;;;4.18;3.67;;;;;;;7.21;56.07;101998.63;5083554;28;20074;-30
2022/05/09 03:30:40;;;;;;;7.38;3.90;;;;;;;7.18;55.76;101996.78;5084239;28;20632;-30
2022/05/09 03:33:06;;;;;;;4.82;3.90;;;;;;;7.17;55.83;102002.03;5079120;28;20020;-30
2022/05/09 03:35:32;;;;;;;5.40;3.35;;;;;;;7.13;55.90;101997.50;5095930;28;20032;-30
2022/05/09 03:37:57;;;;;;;3.92;3.33;;;;;;;7.11;56.22;102002.75;5083362;28;20024;-30
2022/05/09 03:40:23;;;;;;;4.60;3.30;;;;;;;7.09;56.30;101993.03;5079414;28;20068;-30
2022/05/09 03:42:48;;;;;;;5.60;3.38;;;;;;;7.09;56.90;101993.03;5077969;28;20365;-31
2022/05/09 03:45:14;;;;;;;4.50;3.65;;;;;;;7.06;56.88;101991.22;5082151;28;20484;-31
2022/05/09 03:47:40;;;;;;;8.45;4.20;;;;;;;7.02;56.23;101992.00;5079474;28;20028;-30
2022/05/09 03:50:06;;;;;;;4.03;3.50;;;;;;;7.02;56.38;101989.38;5084392;28;20098;-30
2022/05/09 03:52:32;;;;;;;5.47;3.90;;;;;;;7.00;56.42;101989.31;5078528;28;20028;-30
2022/05/09 03:54:57;;;;;;;5.82;3.70;;;;;;;7.00;56.28;101994.56;5079997;28;20074;-30
2022/05/09 03:57:23;;;;;;;4.72;4.13;;;;;;;6.98;56.43;101996.28;5098275;28;20028;-29
2022/05/09 03:59:48;;;;;;;6.65;3.72;;;;;;;6.97;57.08;102002.34;5078709;28;20069;-30
2022/05/09 04:02:14;;;;;;;7.00;3.83;;;;;;;6.95;57.18;101996.19;5085285;28;20012;-30
2022/05/09 04:04:39;;;;;;;4.28;3.75;;;;;;;6.94;56.74;101999.66;5082335;28;20028;-28
2022/05/09 04:07:04;;;;;;;6.40;3.60;;;;;;;6.94;57.10;102004.91;5085987;28;20441;-30
2022/05/09 04:09:29;;;;;;;5.53;3.97;;;;;;;6.92;57.07;101998.72;5085653;28;20063;-30
2022/05/09 04:11:55;;;;;;;5.60;4.22;;;;;;;6.91;57.27;102005.69;5084597;28;20522;-30
2022/05/09 04:16:49;;;;;;;6.40;4.28;;;;;;;6.91;57.61;102007.44;5087707;28;20093;-30
2022/05/09 04:17:07;;;;;;;5.15;3.80;;;;;;;6.90;57.07;102010.91;5084532;28;20059;-30
2022/05/09 04:19:33;;;;;;;5.63;4.10;;;;;;;6.90;57.09;102014.41;5084783;28;20380;-30
2022/05/09 04:22:00;;;;;;;5.65;4.20;;;;;;;6.88;57.05;102010.88;5080949;28;20035;-31
2022/05/09 04:24:25;;;;;;;6.07;3.90;;;;;;;6.88;57.48;102010.88;5080753;28;20028;-31
2022/05/09 04:26:51;;;;;;;4.13;3.70;;;;;;;6.88;57.06;102018.75;5081389;28;20047;-30
2022/05/09 04:29:16;;;;;;;5.95;4.32;;;;;;;6.85;57.14;102010.78;5082792;28;20016;-28
2022/05/09 04:31:41;;;;;;;6.22;3.90;;;;;;;6.87;57.25;102013.47;5071083;28;20032;-31
2022/05/09 04:34:06;;;;;;;4.68;3.63;;;;;;;6.86;57.56;102023.06;5084803;28;20032;-30
2022/05/09 04:36:32;;;;;;;4.57;4.05;;;;;;;6.85;57.50;102005.53;5083048;28;20028;-29
2022/05/09 04:38:58;;;;;;;6.85;3.72;;;;;;;6.85;57.79;102012.50;5081128;28;20032;-30
2022/05/09 04:41:24;;;;;;;9.68;4.00;;;;;;;6.88;57.63;102009.97;5083849;28;20016;-30
2022/05/09 04:43:49;;;;;;;4.53;3.83;;;;;;;6.87;57.69;102008.22;5079576;28;20024;-30
2022/05/09 04:46:15;;;;;;;6.15;3.92;;;;;;;6.90;58.21;102013.53;5084067;28;20026;-31
2022/05/09 04:48:42;;;;;;;4.80;3.60;;;;;;;6.91;58.21;102016.19;5085493;28;20039;-30
2022/05/09 04:51:08;;;;;;;6.22;3.63;;;;;;;6.93;58.27;102017.13;5082750;28;20127;-30
2022/05/09 04:53:33;;;;;;;6.72;4.28;;;;;;;6.97;58.11;102017.22;5085103;28;20077;-30
2022/05/09 04:55:59;;;;;;;5.35;4.10;;;;;;;6.98;58.05;102012.03;5085079;28;20035;-30
2022/05/09 04:58:25;;;;;;;7.82;3.88;;;;;;;6.99;58.29;102019.03;5084118;28;20564;-30
2022/05/09 05:00:51;;;;;;;5.55;4.05;;;;;;;6.99;58.51;102021.66;5081392;28;20366;-30
2022/05/09 05:03:16;;;;;;;5.95;4.18;;;;;;;7.03;58.92;102026.13;5082151;28;20020;-30
2022/05/09 05:05:43;;;;;;;6.55;4.43;;;;;;;7.08;58.90;102017.50;5081127;28;20081;-30
2022/05/09 05:08:08;;;;;;;5.60;4.22;;;;;;;7.10;58.54;102021.94;5071220;28;20044;-29
2022/05/09 05:10:35;;;;;;;6.82;5.28;;;;;;;7.15;58.98;102019.44;5082954;28;20040;-29
2022/05/09 05:13:02;;;;;;;7.07;4.13;;;;;;;7.19;59.47;102021.31;5083683;28;20461;-30
2022/05/09 05:15:28;;;;;;;5.13;3.53;;;;;;;7.23;59.15;102023.16;5083695;28;20113;-29
2022/05/09 05:17:53;;;;;;;5.60;4.78;;;;;;;7.28;59.48;102029.44;5084470;28;20492;-31
2022/05/09 05:20:19;;;;;;;7.25;4.85;;;;;;;7.31;59.28;102026.00;5081744;28;20104;-30
2022/05/09 05:22:48;;;;;;;4.82;4.32;;;;;;;7.39;59.82;102021.84;5076555;28;20024;-28
2022/05/09 05:25:18;;;;;;;7.95;4.55;;;;;;;7.44;60.11;102030.72;5082620;28;20052;-30
2022/05/09 05:27:43;;;;;;;7.43;4.95;;;;;;;7.49;60.09;102036.09;5081283;28;20017;-29
2022/05/09 05:30:10;;;;;;;7.45;4.60;;;;;;;7.55;59.70;102027.47;5086413;28;20035;-30
2022/05/09 05:32:37;;;;;;;8.98;4.43;;;;;;;7.60;59.68;102024.97;5084074;28;20100;-30
2022/05/09 05:35:05;;;;;;;7.57;5.05;;;;;;;7.67;60.16;102019.03;5080512;28;20028;-31
2022/05/09 05:37:32;;;;;;;8.40;4.85;;;;;;;7.74;60.29;102028.81;5100433;28;20027;-30
2022/05/09 05:39:58;;;;;;;6.55;4.97;;;;;;;7.82;61.71;102027.28;5081682;28;20044;-30
2022/05/09 05:42:24;;;;;;;8.70;4.82;;;;;;;7.91;61.05;102028.34;5082287;28;20016;-30
2022/05/09 05:44:49;;;;;;;5.90;4.82;;;;;;;7.96;60.71;102022.34;5086664;28;20499;-30
2022/05/09 05:47:17;;;;;;;7.47;5.15;;;;;;;8.04;61.25;102030.41;5082493;28;20475;-30
2022/05/09 05:49:43;;;;;;;6.80;5.00;;;;;;;8.13;61.72;102027.09;5082592;28;20023;-30
2022/05/09 05:52:11;;;;;;;5.80;4.30;;;;;;;8.23;61.34;102036.06;5083053;28;21174;-30
2022/05/09 05:54:40;;;;;;;6.55;4.90;;;;;;;8.31;62.07;102031.88;5083592;28;20057;-30
2022/05/09 05:57:07;;;;;;;7.38;5.07;;;;;;;8.41;61.77;102032.09;5082441;28;20028;-31
2022/05/09 05:59:32;;;;;;;6.78;4.35;;;;;;;8.52;61.21;102038.47;5083630;28;20513;-29
2022/05/09 06:01:57;;;;;;;6.40;4.85;;;;;;;8.59;61.08;102042.16;5087225;28;20024;-31
2022/05/09 06:04:23;;;;;;;8.45;5.60;;;;;;;8.67;61.32;102034.44;5082782;28;20020;-30
2022/05/09 06:06:49;;;;;;;6.45;4.80;;;;;;;8.74;60.05;102033.69;5084309;28;20056;-30
2022/05/09 06:09:14;;;;;;;7.40;4.55;;;;;;;8.85;60.97;102047.06;5084075;28;20020;-30
2022/05/09 06:11:41;;;;;;;6.40;4.78;;;;;;;8.96;60.94;102039.38;5079752;28;20145;-30
2022/05/09 06:14:07;;;;;;;8.65;4.85;;;;;;;9.04;60.67;102043.03;5083205;28;20361;-31
2022/05/09 06:16:33;;;;;;;10.15;4.80;;;;;;;9.15;60.93;102039.72;5086042;28;20032;-30
2022/05/09 06:19:00;;;;;;;5.82;4.97;;;;;;;9.22;60.24;102045.16;5081018;28;20031;-30
2022/05/09 06:21:26;;;;;;;7.80;5.43;;;;;;;9.36;61.11;102045.41;5083132;28;20107;-30
2022/05/09 06:23:51;;;;;;;7.07;5.10;;;;;;;9.46;61.13;102053.44;5083267;28;20442;-30
2022/05/09 06:26:16;;;;;;;8.68;5.35;;;;;;;9.56;61.35;102049.22;5080885;28;20032;-30
2022/05/09 06:28:41;;;;;;;7.63;4.63;;;;;;;9.69;62.21;102052.97;5078245;28;20125;-30
2022/05/09 06:31:07;;;;;;;11.13;5.35;;;;;;;9.79;61.85;102056.63;5080689;28;20036;-30
2022/05/09 06:33:33;;;;;;;9.07;5.50;;;;;;;9.91;62.20;102050.69;5083332;28;20032;-30
2022/05/09 06:35:59;;;;;;;8.63;4.75;;;;;;;10.03;62.51;102053.50;5084700;28;20031;-29
2022/05/09 06:38:27;;;;;;;6.93;5.45;;;;;;;10.15;63.04;102052.81;5066163;28;20035;-30
2022/05/09 06:40:53;;;;;;;8.60;5.15;;;;;;;10.30;62.96;102053.91;5084821;28;20059;-31
2022/05/09 06:43:19;;;;;;;9.23;5.05;;;;;;;10.42;62.92;102047.91;5081958;28;20380;-31
2022/05/09 06:45:44;;;;;;;7.53;5.10;;;;;;;10.54;62.64;102049.88;5079244;28;20031;-30
2022/05/09 06:48:10;;;;;;;7.93;5.05;;;;;;;10.61;61.22;102055.22;5083289;28;20434;-29
2022/05/09 06:50:36;;;;;;;12.35;4.88;;;;;;;10.76;62.18;102043.09;5099205;28;20024;-31
2022/05/09 06:53:02;;;;;;;5.82;5.05;;;;;;;10.89;62.60;102046.78;5082196;28;20020;-30
2022/05/09 06:55:28;;;;;;;8.88;4.45;;;;;;;11.03;62.45;102041.66;5079854;28;20067;-29
2022/05/09 06:57:53;;;;;;;8.30;5.35;;;;;;;11.18;62.93;102047.97;5081257;28;20035;-31
2022/05/09 07:00:22;;;;;;;9.63;4.32;;;;;;;11.31;61.80;102038.41;5083671;28;20016;-30
2022/05/09 07:02:47;;;;;;;6.65;4.32;;;;;;;11.42;62.17;102048.22;5082935;28;20473;-30
2022/05/09 07:05:15;;;;;;;8.38;4.95;;;;;;;11.58;62.35;102050.09;5080570;28;20110;-30
2022/05/09 07:07:44;;;;;;;10.25;6.05;;;;;;;11.72;62.20;102040.53;5085035;28;20697;-30
2022/05/09 07:10:12;;;;;;;7.57;5.00;;;;;;;11.84;61.37;102039.72;5082674;28;20051;-29
2022/05/09 07:12:48;;;;;;;8.60;4.25;;;;;;;11.98;61.48;102036.31;5084438;28;20020;-30
2022/05/09 07:15:16;;;;;;;7.80;4.47;;;;;;;12.10;60.72;102033.78;5099411;28;20467;-30
2022/05/09 07:17:42;;;;;;;6.82;4.60;;;;;;;12.29;61.56;102031.25;5079030;28;20031;-30
2022/05/09 07:20:08;;;;;;;8.63;4.20;;;;;;;12.42;62.41;102038.41;5083949;28;20031;-28
2022/05/09 07:22:33;;;;;;;6.70;4.35;;;;;;;12.58;61.27;102038.47;5080849;28;20044;-30
2022/05/09 07:24:59;;;;;;;9.80;4.55;;;;;;;12.72;61.10;102024.38;5081910;28;20403;-30
2022/05/09 07:27:24;;;;;;;9.65;4.65;;;;;;;12.88;62.48;102025.31;5082251;28;20110;-29
2022/05/09 07:29:49;;;;;;;7.55;4.60;;;;;;;13.05;62.35;102036.88;5080043;28;20491;-30
2022/05/09 07:32:15;;;;;;;5.88;3.53;;;;;;;13.21;61.96;102035.09;5067811;28;20082;-30
2022/05/09 07:34:40;;;;;;;5.15;4.38;;;;;;;13.35;62.72;102034.25;5097265;28;20109;-30
2022/05/09 07:37:05;;;;;;;9.85;4.35;;;;;;;13.53;62.72;102030.75;5088122;28;20024;-30
2022/05/09 07:39:31;;;;;;;5.90;3.67;;;;;;;13.70;62.50;102037.81;5090729;28;20547;-30
2022/05/09 07:41:57;;;;;;;5.30;3.65;;;;;;;13.81;62.38;102041.34;5092367;28;20121;-30
2022/05/09 07:44:22;;;;;;;8.93;4.50;;;;;;;13.94;59.86;102036.91;5090055;28;20024;-30
2022/05/09 07:46:48;;;;;;;6.93;3.80;;;;;;;14.11;62.16;102034.22;5087428;28;20016;-31
2022/05/09 07:49:13;;;;;;;6.22;3.55;;;;;;;14.26;62.00;102028.88;5093010;28;20023;-31
2022/05/09 07:51:39;;;;;;;8.48;4.32;;;;;;;14.42;62.19;102032.38;5086299;28;20490;-31
2022/05/09 07:54:05;;;;;;;5.53;3.45;;;;;;;14.59;62.74;102030.56;5085817;28;20484;-30
2022/05/09 07:56:30;;;;;;;4.90;3.40;;;;;;;14.79;63.43;102034.03;5089058;28;20111;-30
2022/05/09 07:58:55;;;;;;;8.82;3.90;;;;;;;14.94;62.78;102027.78;5089545;28;20636;-30
2022/05/09 08:01:21;;;;;;;6.35;3.90;;;;;;;15.06;62.17;102027.69;5103600;28;20063;-30
2022/05/09 08:03:46;;;;;;;6.60;3.58;;;;;;;15.24;62.76;102031.13;5089293;28;20020;-31
2022/05/09 08:06:11;;;;;;;6.28;3.67;;;;;;;15.39;62.55;102025.72;5088444;28;20622;-30
2022/05/09 08:08:38;;;;;;;7.07;3.72;;;;;;;15.57;62.43;102026.44;5085004;28;20032;-30
2022/05/09 08:11:04;;;;;;;6.78;3.47;;;;;;;15.74;62.78;102023.63;5088180;28;20531;-31
2022/05/09 08:13:33;;;;;;;4.68;3.55;;;;;;;15.92;63.05;102019.03;5086526;28;20020;-31
2022/05/09 08:16:00;;;;;;;4.28;3.22;;;;;;;16.05;62.51;102027.81;5085885;28;20024;-29
2022/05/09 08:18:26;;;;;;;3.63;3.30;;;;;;;16.23;62.43;102021.41;5089319;28;20070;-30
2022/05/09 08:20:53;;;;;;;5.68;3.65;;;;;;;16.36;62.06;102022.13;5085368;28;20719;-30
2022/05/09 08:23:19;;;;;;;8.85;3.50;;;;;;;16.53;61.81;102010.38;5087327;28;20053;-30
2022/05/09 08:25:47;;;;;;;5.68;3.42;;;;;;;16.69;62.15;102005.75;5090913;28;20027;-28
2022/05/09 08:28:12;;;;;;;7.13;3.53;;;;;;;16.87;62.12;102017.06;5090804;28;20039;-30
2022/05/09 08:30:38;;;;;;;6.88;3.33;;;;;;;17.05;61.88;102022.13;5086945;28;20025;-29
2022/05/09 08:33:10;;;;;;;6.13;3.25;;;;;;;17.20;61.71;102014.81;5090786;28;20058;-30
2022/05/09 08:35:35;;;;;;;6.65;3.50;;;;;;;17.38;61.93;102023.44;5089022;28;20088;-30
2022/05/09 08:38:01;;;;;;;5.43;4.25;;;;;;;17.54;61.79;102024.94;5087658;28;20487;-30
2022/05/09 08:40:34;;;;;;;4.07;3.60;;;;;;;17.71;61.55;102018.44;5087288;28;20419;-30
2022/05/09 08:43:24;;;;;;;6.63;3.28;;;;;;;17.91;61.25;102025.22;5086838;28;20020;-29
2022/05/09 08:46:01;;;;;;;5.47;3.40;;;;;;;18.05;61.39;102023.16;5084812;28;20024;-30
2022/05/09 08:48:32;;;;;;;5.10;3.53;;;;;;;18.21;61.31;102020.22;5078981;28;20054;-30
2022/05/09 08:51:03;;;;;;;;;;;;;;;18.33;60.35;102019.97;5085413;28;20037;-30
2022/05/09 08:53:29;;;;;;;;;;;;;;;18.48;60.09;102011.66;5084257;28;20306;-30
2022/05/09 08:55:55;;;;;;;7.55;3.25;;;;;;;18.60;59.45;102022.09;5083573;28;19908;-30
2022/05/09 08:58:41;;;;;;;5.43;3.30;;;;;;;18.75;58.37;102010.19;5082703;28;20024;-30
2022/05/09 09:01:20;;;;;;;7.38;3.67;;;;;;;18.90;58.56;102013.44;5081662;28;20043;-30
2022/05/09 09:03:54;;;;;;;6.25;3.63;;;;;;;19.03;58.70;102014.91;5081904;28;20023;-29
2022/05/09 09:06:24;;;;;;;6.53;3.03;;;;;;;19.16;59.51;102014.63;5085674;28;20030;-31
2022/05/09 09:09:14;;;;;;;5.22;3.83;;;;;;;19.29;58.99;102016.13;5085277;28;20024;-31
2022/05/09 09:11:55;;;;;;;3.95;3.22;;;;;;;19.47;58.86;102014.78;5084271;28;20051;-30
2022/05/09 09:14:40;;;;;;;4.30;3.30;;;;;;;19.57;58.59;102010.06;5087119;28;20506;-31
2022/05/09 09:17:33;;;;;;;7.40;3.45;;;;;;;19.71;58.39;102011.50;5086465;28;20032;-30
2022/05/09 09:20:11;;;;;;;5.03;3.42;;;;;;;19.84;58.09;102010.25;5087036;28;20035;-30
2022/05/09 09:23:01;;;;;;;6.90;3.88;;;;;;;20.02;57.59;102010.72;5080823;28;20008;-30
2022/05/09 09:25:45;;;;;;;6.87;3.97;;;;;;;20.21;57.56;102003.00;5086618;28;20052;-29
2022/05/09 09:28:14;;;;;;;4.82;3.63;;;;;;;20.36;57.49;101999.03;5083859;28;20024;-30
2022/05/09 09:30:41;;;;;;;4.22;3.05;;;;;;;20.47;56.65;102001.38;5083061;28;20065;-30
2022/05/09 09:33:09;;;;;;;5.15;3.60;;;;;;;20.58;55.77;102003.72;5085413;28;20027;-30
2022/05/09 09:35:53;;;;;;;8.10;3.42;;;;;;;20.72;55.91;101999.75;5085013;28;20457;-31
2022/05/09 09:38:21;;;;;;;5.60;3.03;;;;;;;20.83;55.45;101996.72;5084334;28;20065;-30
2022/05/09 09:40:47;;;;;;;3.67;2.78;;;;;;;20.93;54.54;101994.66;5079608;28;20021;-30
2022/05/09 09:43:12;;;;;;;3.45;2.83;;;;;;;21.06;54.81;101996.03;5080981;28;20517;-30
2022/05/09 09:45:46;;;;;;;4.13;3.33;;;;;;;21.15;53.90;101995.72;5082194;28;20487;-31
2022/05/09 09:48:14;;;;;;;4.28;3.15;;;;;;;21.31;54.35;101989.88;5084035;28;20020;-31
2022/05/09 09:50:59;;;;;;;6.47;3.40;;;;;;;21.47;54.53;101994.72;5083242;28;20036;-30
2022/05/09 09:53:40;;;;;;;6.68;3.55;;;;;;;21.60;54.25;101990.66;5081669;28;20043;-32
2022/05/09 09:56:27;;;;;;;5.00;3.72;;;;;;;21.74;54.16;101989.34;5081721;28;20097;-30
2022/05/09 09:58:58;;;;;;;6.03;2.92;;;;;;;21.84;54.11;101997.94;5083489;28;20503;-31
2022/05/09 10:01:26;;;;;;;4.45;3.10;;;;;;;21.91;52.77;101989.59;5082540;28;20032;-31
2022/05/09 10:04:09;;;;;;;6.65;3.60;;;;;;;22.04;53.10;101978.44;5084506;28;20049;-30
2022/05/09 10:06:35;;;;;;;5.22;3.67;;;;;;;22.15;53.21;101981.56;5081008;28;20158;-30
2022/05/09 10:09:03;;;;;;;4.43;3.35;;;;;;;22.26;52.73;101980.28;5082166;28;20112;-31
2022/05/09 10:11:30;;;;;;;5.00;2.80;;;;;;;22.33;50.83;101987.19;5085971;28;20082;-29
2022/05/09 10:14:01;;;;;;;6.15;3.40;;;;;;;22.46;51.96;101970.59;5082588;28;20090;-30
2022/05/09 10:16:33;;;;;;;5.32;3.25;;;;;;;22.55;52.43;101975.63;5080378;28;20023;-31
2022/05/09 10:19:07;;;;;;;5.60;2.92;;;;;;;22.62;51.54;101969.09;5083918;28;20038;-30
2022/05/09 10:27:06;;;;;;;4.00;2.90;;;;;;;22.89;51.03;101963.53;5082995;28;20042;-30
2022/05/09 10:29:36;;;;;;;4.10;2.83;;;;;;;22.96;50.33;101955.19;5081566;28;20024;-31
2022/05/09 10:32:05;;;;;;;4.20;3.10;;;;;;;23.06;51.58;101953.88;5082805;28;20044;-29
2022/05/09 10:34:39;;;;;;;4.40;3.03;;;;;;;23.16;51.51;101955.25;5082993;28;20070;-31
2022/05/09 10:37:17;;;;;;;5.35;2.60;;;;;;;23.24;50.51;101956.75;5081567;28;20042;-31
2022/05/09 10:39:45;;;;;;;3.42;2.47;;;;;;;23.25;48.19;101948.63;5081089;28;20488;-31
2022/05/09 10:42:11;;;;;;;5.55;2.75;;;;;;;23.34;49.27;101950.00;5099764;28;20110;-29
2022/05/09 10:44:59;;;;;;;5.43;2.40;;;;;;;23.44;50.75;101947.88;5078916;28;20115;-30
2022/05/09 10:48:01;;;;;;;5.63;3.20;;;;;;;23.51;49.79;101940.38;5079720;28;20472;-30
2022/05/09 10:50:32;;;;;;;4.68;2.78;;;;;;;23.59;49.34;101935.53;5083436;28;20047;-31
2022/05/09 10:53:09;;;;;;;;;;;;;;;23.65;47.72;101934.38;5081669;28;20085;-31
2022/05/09 10:55:45;;;;;;;4.78;2.90;;;;;;;23.75;50.04;101934.84;5081322;28;19920;-31
2022/05/09 10:58:24;;;;;;;5.60;2.70;;;;;;;23.81;49.16;101923.81;5082732;28;20012;-31
2022/05/09 11:00:57;;;;;;;3.20;2.90;;;;;;;23.90;49.42;101919.78;5079661;28;20059;-31
2022/05/09 11:03:27;;;;;;;6.00;3.13;;;;;;;23.96;48.89;101911.44;5082059;28;20024;-30
2022/05/09 11:06:17;;;;;;;4.50;2.92;;;;;;;24.03;47.85;101912.00;5079891;28;20512;-31
2022/05/09 11:08:57;;;;;;;5.22;2.67;;;;;;;24.10;46.67;101910.78;5080617;28;20484;-30
2022/05/09 11:11:35;;;;;;;2.88;2.17;;;;;;;24.17;47.11;101906.03;5079330;28;20052;-30
2022/05/09 11:14:24;;;;;;;4.40;2.53;;;;;;;24.20;48.17;101904.06;5080003;28;20028;-30
2022/05/09 11:17:11;;;;;;;3.03;2.78;;;;;;;24.29;47.64;101909.94;5082027;28;20028;-31
2022/05/09 11:19:52;;;;;;;3.00;2.63;;;;;;;24.34;47.08;101899.84;5080076;28;20552;-30
2022/05/09 11:22:26;;;;;;;3.47;2.67;;;;;;;24.38;46.48;101895.16;5078259;28;20035;-31
2022/05/09 11:24:58;;;;;;;3.03;2.17;;;;;;;24.46;45.84;101893.84;5083365;28;20028;-30
2022/05/09 11:27:37;;;;;;;4.35;2.88;;;;;;;24.51;46.23;101888.19;5084315;28;20084;-29
2022/05/09 11:30:20;;;;;;;3.67;2.30;;;;;;;24.60;46.60;101884.19;5081934;28;20380;-33
2022/05/09 11:32:47;;;;;;;3.03;2.50;;;;;;;24.65;46.41;101876.75;5083368;28;20077;-30
2022/05/09 11:35:30;;;;;;;2.85;2.38;;;;;;;24.73;47.27;101870.94;5082040;28;20020;-31
2022/05/09 11:38:43;;;;;;;3.70;2.60;;;;;;;24.77;45.70;101879.78;5082258;28;20032;-30
2022/05/09 11:41:28;;;;;;;3.90;2.60;;;;;;;24.83;45.73;101872.25;5060562;28;20035;-30
2022/05/09 11:44:08;;;;;;;3.55;2.50;;;;;;;24.89;46.45;101868.41;5083014;28;20032;-30
2022/05/09 11:47:05;;;;;;;3.58;1.90;;;;;;;24.93;46.21;101869.97;5079995;28;20105;-30
2022/05/09 11:49:58;;;;;;;3.65;2.50;;;;;;;24.98;46.06;101862.50;5083294;28;20028;-31